createdAt,value
2017-11-22T00:00:02.701Z,10.00
2017-11-22T00:01:02.696Z,11.90
2017-11-22T00:02:02.692Z,11.30
2017-11-22T00:03:02.685Z,11.80
2017-11-22T00:04:02.679Z,9.70
2017-11-22T00:05:02.675Z,13.70
2017-11-22T00:06:02.671Z,10.80
2017-11-22T00:07:02.664Z,11.70
2017-11-22T00:08:02.660Z,10.20
2017-11-22T00:09:02.658Z,11.20
2017-11-22T00:10:02.648Z,10.50
2017-11-22T00:11:02.645Z,11.00
2017-11-22T00:12:02.638Z,12.70
2017-11-22T00:13:02.634Z,9.80
2017-11-22T00:14:02.630Z,13.30
2017-11-22T00:15:02.627Z,12.20
2017-11-22T00:16:02.620Z,13.50
2017-11-22T00:17:02.615Z,10.60
2017-11-22T00:18:02.613Z,9.70
2017-11-22T00:19:02.604Z,10.00
2017-11-22T00:20:02.607Z,12.80
2017-11-22T00:21:02.596Z,9.10
2017-11-22T00:22:02.605Z,10.30
2017-11-22T00:23:02.587Z,10.80
2017-11-22T00:24:02.580Z,10.70
2017-11-22T00:25:02.576Z,11.70
2017-11-22T00:26:02.571Z,10.60
2017-11-22T00:27:02.568Z,9.00
2017-11-22T00:28:02.563Z,9.60
2017-11-22T00:29:02.558Z,9.20
2017-11-22T00:30:02.558Z,11.10
2017-11-22T00:31:02.548Z,9.30
2017-11-22T00:32:02.543Z,10.10
2017-11-22T00:33:02.536Z,10.40
2017-11-22T00:34:02.531Z,9.50
2017-11-22T00:35:02.527Z,10.30
2017-11-22T00:36:02.529Z,9.70
2017-11-22T00:37:02.514Z,10.90
2017-11-22T00:38:02.511Z,11.20
2017-11-22T00:39:02.508Z,10.00
2017-11-22T00:40:02.502Z,9.20
2017-11-22T00:41:02.500Z,11.00
2017-11-22T00:42:02.492Z,8.30
2017-11-22T00:43:02.487Z,9.10
2017-11-22T00:44:02.481Z,9.60
2017-11-22T00:45:02.477Z,9.40
2017-11-22T00:46:02.473Z,10.20
2017-11-22T00:47:02.471Z,9.50
2017-11-22T00:48:02.462Z,9.60
2017-11-22T00:49:02.458Z,9.80
2017-11-22T00:50:02.453Z,10.30
2017-11-22T00:51:02.446Z,10.60
2017-11-22T00:52:02.444Z,8.50
2017-11-22T00:53:02.438Z,10.40
2017-11-22T00:54:02.431Z,10.10
2017-11-22T00:55:02.433Z,9.90
2017-11-22T00:56:02.421Z,10.30
2017-11-22T00:57:02.420Z,11.10
2017-11-22T00:58:02.412Z,9.30
2017-11-22T00:59:02.409Z,10.10
2017-11-22T01:00:02.404Z,9.40
2017-11-22T01:01:02.399Z,10.00
2017-11-22T01:02:02.392Z,10.20
2017-11-22T01:03:02.391Z,9.70
2017-11-22T01:04:02.384Z,11.90
2017-11-22T01:05:02.378Z,8.80
2017-11-22T01:06:02.380Z,10.90
2017-11-22T01:07:02.368Z,10.20
2017-11-22T01:08:02.366Z,9.40
2017-11-22T01:09:02.360Z,9.60
2017-11-22T01:10:02.352Z,9.30
2017-11-22T01:11:02.349Z,10.90
2017-11-22T01:12:02.344Z,9.10
2017-11-22T01:13:02.339Z,8.60
2017-11-22T01:14:02.338Z,10.40
2017-11-22T01:15:02.331Z,9.40
2017-11-22T01:16:02.329Z,10.90
2017-11-22T01:17:02.320Z,11.30
2017-11-22T01:18:02.315Z,11.40
2017-11-22T01:19:02.308Z,11.90
2017-11-22T01:20:02.302Z,11.30
2017-11-22T01:21:02.300Z,11.60
2017-11-22T01:22:02.293Z,11.00
2017-11-22T01:23:02.289Z,12.90
2017-11-22T01:24:02.287Z,10.30
2017-11-22T01:25:02.285Z,9.60
2017-11-22T01:26:02.279Z,11.10
2017-11-22T01:27:02.271Z,10.20
2017-11-22T01:28:02.267Z,10.00
2017-11-22T01:29:02.259Z,10.10
2017-11-22T01:30:02.252Z,9.90
2017-11-22T01:31:02.250Z,11.50
2017-11-22T01:32:02.245Z,10.00
2017-11-22T01:33:02.236Z,9.40
2017-11-22T01:34:02.237Z,10.50
2017-11-22T01:35:02.230Z,10.10
2017-11-22T01:36:02.228Z,11.30
2017-11-22T01:37:02.220Z,10.40
2017-11-22T01:38:02.218Z,10.20
2017-11-22T01:39:02.212Z,10.40
2017-11-22T01:40:02.210Z,11.10
2017-11-22T01:41:02.201Z,12.00
2017-11-22T01:42:02.196Z,11.10
2017-11-22T01:43:02.192Z,11.90
2017-11-22T01:44:02.188Z,9.60
2017-11-22T01:45:02.183Z,10.20
2017-11-22T01:46:02.178Z,11.40
2017-11-22T01:47:02.173Z,10.20
2017-11-22T01:48:02.174Z,11.10
2017-11-22T01:49:02.161Z,9.60
2017-11-22T01:50:02.157Z,11.00
2017-11-22T01:51:02.151Z,12.10
2017-11-22T01:52:02.147Z,10.30
2017-11-22T01:53:02.140Z,9.80
2017-11-22T01:54:02.137Z,12.20
2017-11-22T01:55:02.133Z,11.30
2017-11-22T01:56:02.126Z,10.90
2017-11-22T01:57:02.119Z,9.70
2017-11-22T01:58:02.115Z,9.90
2017-11-22T01:59:02.110Z,10.60
2017-11-22T02:00:02.108Z,10.10
2017-11-22T02:01:02.105Z,10.80
2017-11-22T02:02:02.096Z,10.60
2017-11-22T02:03:02.093Z,12.30
2017-11-22T02:04:02.088Z,11.50
2017-11-22T02:05:02.081Z,11.00
2017-11-22T02:06:02.078Z,10.70
2017-11-22T02:07:02.070Z,10.60
2017-11-22T02:08:02.070Z,11.00
2017-11-22T02:09:02.062Z,11.60
2017-11-22T02:10:02.058Z,10.50
2017-11-22T02:11:02.053Z,11.80
2017-11-22T02:12:02.055Z,10.00
2017-11-22T02:13:02.045Z,11.80
2017-11-22T02:14:02.038Z,11.30
2017-11-22T02:15:02.044Z,12.10
2017-11-22T02:16:02.030Z,10.80
2017-11-22T02:17:02.023Z,12.20
2017-11-22T02:18:02.019Z,11.20
2017-11-22T02:19:02.013Z,10.60
2017-11-22T02:20:02.011Z,12.10
2017-11-22T02:21:02.005Z,12.20
2017-11-22T02:22:01.998Z,11.80
2017-11-22T02:23:01.993Z,10.90
2017-11-22T02:24:01.991Z,10.90
2017-11-22T02:25:01.982Z,12.10
2017-11-22T02:26:01.981Z,12.70
2017-11-22T02:27:01.974Z,10.20
2017-11-22T02:28:01.970Z,10.80
2017-11-22T02:29:01.965Z,12.40
2017-11-22T02:30:01.961Z,12.90
2017-11-22T02:31:01.953Z,11.20
2017-11-22T02:32:01.949Z,14.80
2017-11-22T02:33:01.946Z,11.40
2017-11-22T02:34:01.938Z,12.00
2017-11-22T02:35:01.932Z,12.30
2017-11-22T02:36:01.929Z,11.10
2017-11-22T02:37:01.924Z,12.40
2017-11-22T02:38:01.922Z,10.80
2017-11-22T02:39:01.916Z,12.20
2017-11-22T02:40:01.911Z,12.60
2017-11-22T02:41:01.907Z,14.10
2017-11-22T02:42:01.899Z,12.20
2017-11-22T02:43:01.896Z,12.90
2017-11-22T02:44:01.892Z,14.30
2017-11-22T02:45:01.888Z,12.00
2017-11-22T02:46:01.880Z,12.20
2017-11-22T02:47:01.891Z,14.70
2017-11-22T02:48:01.869Z,13.90
2017-11-22T02:49:01.869Z,13.30
2017-11-22T02:50:01.872Z,11.50
2017-11-22T02:51:01.856Z,13.50
2017-11-22T02:52:01.851Z,11.80
2017-11-22T02:53:01.847Z,13.30
2017-11-22T02:54:01.842Z,12.30
2017-11-22T02:55:01.838Z,12.60
2017-11-22T02:56:01.833Z,11.60
2017-11-22T02:57:01.828Z,11.70
2017-11-22T02:58:01.826Z,13.10
2017-11-22T02:59:01.818Z,11.90
2017-11-22T03:00:01.809Z,10.50
2017-11-22T03:01:01.808Z,12.20
2017-11-22T03:02:01.803Z,13.70
2017-11-22T03:03:01.797Z,13.10
2017-11-22T03:04:01.790Z,11.50
2017-11-22T03:05:01.788Z,11.40
2017-11-22T03:06:01.785Z,12.20
2017-11-22T03:07:01.785Z,15.20
2017-11-22T03:08:01.773Z,12.60
2017-11-22T03:09:01.771Z,11.40
2017-11-22T03:10:01.768Z,11.50
2017-11-22T03:11:01.759Z,13.40
2017-11-22T03:12:01.755Z,14.10
2017-11-22T03:13:01.750Z,13.20
2017-11-22T03:14:01.746Z,12.30
2017-11-22T03:15:01.741Z,12.20
2017-11-22T03:16:01.734Z,11.30
2017-11-22T03:17:01.731Z,12.40
2017-11-22T03:18:01.724Z,11.90
2017-11-22T03:19:01.722Z,10.70
2017-11-22T03:20:01.717Z,12.40
2017-11-22T03:21:01.711Z,11.80
2017-11-22T03:22:01.705Z,11.20
2017-11-22T03:23:01.700Z,11.40
2017-11-22T03:24:01.695Z,12.80
2017-11-22T03:25:01.692Z,13.00
2017-11-22T03:26:01.684Z,11.90
2017-11-22T03:27:01.688Z,11.80
2017-11-22T03:28:01.675Z,11.10
2017-11-22T03:29:01.672Z,10.80
2017-11-22T03:30:01.666Z,11.40
2017-11-22T03:31:01.661Z,14.50
2017-11-22T03:32:01.655Z,12.50
2017-11-22T03:33:01.642Z,11.10
2017-11-22T03:34:01.644Z,12.00
2017-11-22T03:35:01.639Z,11.10
2017-11-22T03:36:01.637Z,11.90
2017-11-22T03:37:01.632Z,12.90
2017-11-22T03:38:01.627Z,12.20
2017-11-22T03:39:01.624Z,11.90
2017-11-22T03:40:01.615Z,11.80
2017-11-22T03:41:01.613Z,14.40
2017-11-22T03:42:01.606Z,11.20
2017-11-22T03:43:01.602Z,13.60
2017-11-22T03:44:01.594Z,11.80
2017-11-22T03:45:01.593Z,11.40
2017-11-22T03:46:01.583Z,11.20
2017-11-22T03:47:01.581Z,11.30
2017-11-22T03:48:01.576Z,13.30
2017-11-22T03:49:01.572Z,12.80
2017-11-22T03:50:01.571Z,11.30
2017-11-22T03:51:01.562Z,11.80
2017-11-22T03:52:01.558Z,13.10
2017-11-22T03:53:01.553Z,13.30
2017-11-22T03:54:01.546Z,12.10
2017-11-22T03:55:01.543Z,10.90
2017-11-22T03:56:01.537Z,13.20
2017-11-22T03:57:01.534Z,12.60
2017-11-22T03:58:01.534Z,13.10
2017-11-22T03:59:01.522Z,12.80
2017-11-22T04:00:01.523Z,13.80
2017-11-22T04:01:01.512Z,12.40
2017-11-22T04:02:01.507Z,12.10
2017-11-22T04:03:01.506Z,13.90
2017-11-22T04:04:01.500Z,12.50
2017-11-22T04:05:01.493Z,12.10
2017-11-22T04:06:01.489Z,12.50
2017-11-22T04:07:01.483Z,12.20
2017-11-22T04:08:01.480Z,12.90
2017-11-22T04:09:01.478Z,12.00
2017-11-22T04:10:01.470Z,13.70
2017-11-22T04:11:01.464Z,13.20
2017-11-22T04:12:01.463Z,12.80
2017-11-22T04:13:01.455Z,13.80
2017-11-22T04:14:01.449Z,14.20
2017-11-22T04:15:01.445Z,16.70
2017-11-22T04:16:01.439Z,16.20
2017-11-22T04:17:01.435Z,14.60
2017-11-22T04:18:01.434Z,14.80
2017-11-22T04:19:01.423Z,16.00
2017-11-22T04:20:01.422Z,15.60
2017-11-22T04:21:01.422Z,16.80
2017-11-22T04:22:01.409Z,14.70
2017-11-22T04:23:01.403Z,15.90
2017-11-22T04:24:01.405Z,15.70
2017-11-22T04:25:01.395Z,16.80
2017-11-22T04:26:01.388Z,17.80
2017-11-22T04:27:01.385Z,16.30
2017-11-22T04:28:01.382Z,16.60
2017-11-22T04:29:01.378Z,17.00
2017-11-22T04:30:01.371Z,15.70
2017-11-22T04:31:01.365Z,18.60
2017-11-22T04:32:01.369Z,16.80
2017-11-22T04:33:01.357Z,16.90
2017-11-22T04:34:01.340Z,16.70
2017-11-22T04:35:01.349Z,16.00
2017-11-22T04:36:01.352Z,16.10
2017-11-22T04:37:01.347Z,14.90
2017-11-22T04:38:01.332Z,15.50
2017-11-22T04:39:01.326Z,15.40
2017-11-22T04:40:01.320Z,15.10
2017-11-22T04:41:01.319Z,15.80
2017-11-22T04:42:01.312Z,16.40
2017-11-22T04:43:01.309Z,18.60
2017-11-22T04:44:01.308Z,17.30
2017-11-22T04:45:01.292Z,16.60
2017-11-22T04:46:01.301Z,15.30
2017-11-22T04:47:01.289Z,16.00
2017-11-22T04:48:01.282Z,17.60
2017-11-22T04:49:01.278Z,15.10
2017-11-22T04:50:01.273Z,16.40
2017-11-22T04:51:01.276Z,17.50
2017-11-22T04:52:01.266Z,16.70
2017-11-22T04:53:01.258Z,16.30
2017-11-22T04:54:01.253Z,16.40
2017-11-22T04:55:01.251Z,15.10
2017-11-22T04:56:01.248Z,15.60
2017-11-22T04:57:01.240Z,15.80
2017-11-22T04:58:01.241Z,17.00
2017-11-22T04:59:01.239Z,17.50
2017-11-22T05:00:01.228Z,14.70
2017-11-22T05:01:01.222Z,17.50
2017-11-22T05:02:01.214Z,13.30
2017-11-22T05:03:01.212Z,16.50
2017-11-22T05:04:01.207Z,13.80
2017-11-22T05:05:01.201Z,14.10
2017-11-22T05:06:01.197Z,14.40
2017-11-22T05:07:01.190Z,15.00
2017-11-22T05:08:01.194Z,15.80
2017-11-22T05:09:01.186Z,14.20
2017-11-22T05:10:01.175Z,14.70
2017-11-22T05:11:01.172Z,14.40
2017-11-22T05:12:01.167Z,15.90
2017-11-22T05:13:01.163Z,14.40
2017-11-22T05:14:01.155Z,15.50
2017-11-22T05:15:01.152Z,16.00
2017-11-22T05:16:01.149Z,15.60
2017-11-22T05:17:01.141Z,16.50
2017-11-22T05:18:01.137Z,14.60
2017-11-22T05:19:01.131Z,18.50
2017-11-22T05:20:01.121Z,15.70
2017-11-22T05:21:01.125Z,16.70
2017-11-22T05:22:01.116Z,14.20
2017-11-22T05:23:01.113Z,16.60
2017-11-22T05:24:01.108Z,13.80
2017-11-22T05:25:01.105Z,14.70
2017-11-22T05:26:01.100Z,17.00
2017-11-22T05:27:01.094Z,17.00
2017-11-22T05:28:01.091Z,15.60
2017-11-22T05:29:01.086Z,16.10
2017-11-22T05:30:01.078Z,17.60
2017-11-22T05:31:01.074Z,14.90
2017-11-22T05:32:01.068Z,15.90
2017-11-22T05:33:01.065Z,16.00
2017-11-22T05:34:01.061Z,16.50
2017-11-22T05:35:01.055Z,16.70
2017-11-22T05:36:01.048Z,13.90
2017-11-22T05:37:01.043Z,14.40
2017-11-22T05:38:01.039Z,14.60
2017-11-22T05:39:01.033Z,14.90
2017-11-22T05:40:01.036Z,17.20
2017-11-22T05:41:01.024Z,15.20
2017-11-22T05:42:01.021Z,15.70
2017-11-22T05:43:01.008Z,14.40
2017-11-22T05:44:01.009Z,15.90
2017-11-22T05:45:01.005Z,14.80
2017-11-22T05:46:01.007Z,17.20
2017-11-22T05:47:00.993Z,15.80
2017-11-22T05:48:00.988Z,16.50
2017-11-22T05:49:00.983Z,14.90
2017-11-22T05:50:00.980Z,15.30
2017-11-22T05:51:00.974Z,17.20
2017-11-22T05:52:00.967Z,15.70
2017-11-22T05:53:00.963Z,18.30
2017-11-22T05:54:00.963Z,16.00
2017-11-22T05:55:00.953Z,14.60
2017-11-22T05:56:00.952Z,18.00
2017-11-22T05:57:00.944Z,16.30
2017-11-22T05:58:00.937Z,18.50
2017-11-22T05:59:00.933Z,16.20
2017-11-22T06:00:00.928Z,16.00
2017-11-22T06:01:00.923Z,18.00
2017-11-22T06:02:00.923Z,17.50
2017-11-22T06:03:00.923Z,15.90
2017-11-22T06:04:00.908Z,17.50
2017-11-22T06:05:00.903Z,15.00
2017-11-22T06:06:00.901Z,16.80
2017-11-22T06:07:00.892Z,16.20
2017-11-22T06:08:00.887Z,17.90
2017-11-22T06:09:00.882Z,17.70
2017-11-22T06:10:00.878Z,15.80
2017-11-22T06:11:00.869Z,18.90
2017-11-22T06:12:00.865Z,16.00
2017-11-22T06:13:00.869Z,18.00
2017-11-22T06:14:00.859Z,16.40
2017-11-22T06:15:00.856Z,16.30
2017-11-22T06:16:00.847Z,16.70
2017-11-22T06:17:00.844Z,18.70
2017-11-22T06:18:00.840Z,16.40
2017-11-22T06:19:00.838Z,17.00
2017-11-22T06:20:00.832Z,17.40
2017-11-22T06:21:00.829Z,17.10
2017-11-22T06:22:00.823Z,16.80
2017-11-22T06:23:00.820Z,18.00
2017-11-22T06:24:00.815Z,18.20
2017-11-22T06:25:00.811Z,17.30
2017-11-22T06:26:00.804Z,16.20
2017-11-22T06:27:00.795Z,16.50
2017-11-22T06:28:00.790Z,19.40
2017-11-22T06:29:00.786Z,17.90
2017-11-22T06:30:00.778Z,15.90
2017-11-22T06:31:00.774Z,18.10
2017-11-22T06:32:00.768Z,19.60
2017-11-22T06:33:00.765Z,16.60
2017-11-22T06:34:00.761Z,18.80
2017-11-22T06:35:00.760Z,17.10
2017-11-22T06:36:00.749Z,17.70
2017-11-22T06:37:00.744Z,17.50
2017-11-22T06:38:00.738Z,16.80
2017-11-22T06:39:00.732Z,18.60
2017-11-22T06:40:00.727Z,17.70
2017-11-22T06:41:00.721Z,18.60
2017-11-22T06:42:00.718Z,17.70
2017-11-22T06:43:00.714Z,16.50
2017-11-22T06:44:00.707Z,17.50
2017-11-22T06:45:00.704Z,18.80
2017-11-22T06:46:00.697Z,17.00
2017-11-22T06:47:00.690Z,17.00
2017-11-22T06:48:00.689Z,15.90
2017-11-22T06:49:00.687Z,15.90
2017-11-22T06:50:00.675Z,17.60
2017-11-22T06:51:00.670Z,17.30
2017-11-22T06:52:00.667Z,15.60
2017-11-22T06:53:00.662Z,17.30
2017-11-22T06:54:00.655Z,17.40
2017-11-22T06:55:00.651Z,18.30
2017-11-22T06:56:00.644Z,17.70
2017-11-22T06:57:00.644Z,16.80
2017-11-22T06:58:00.633Z,17.30
2017-11-22T06:59:00.631Z,16.00
2017-11-22T07:00:00.624Z,16.30
2017-11-22T07:01:00.621Z,16.60
2017-11-22T07:02:00.613Z,15.00
2017-11-22T07:03:00.609Z,16.20
2017-11-22T07:04:00.606Z,15.30
2017-11-22T07:05:00.600Z,14.80
2017-11-22T07:06:00.592Z,15.00
2017-11-22T07:07:00.590Z,16.30
2017-11-22T07:08:00.588Z,14.90
2017-11-22T07:09:00.580Z,16.70
2017-11-22T07:10:00.574Z,17.20
2017-11-22T07:11:00.569Z,17.70
2017-11-22T07:12:00.566Z,16.30
2017-11-22T07:13:00.559Z,15.80
2017-11-22T07:14:00.560Z,16.80
2017-11-22T07:15:00.549Z,15.80
2017-11-22T07:16:00.544Z,15.70
2017-11-22T07:17:00.541Z,15.40
2017-11-22T07:18:00.535Z,16.40
2017-11-22T07:19:00.530Z,18.10
2017-11-22T07:20:00.527Z,14.90
2017-11-22T07:21:00.519Z,18.80
2017-11-22T07:22:00.519Z,15.50
2017-11-22T07:23:00.512Z,16.90
2017-11-22T07:24:00.506Z,16.50
2017-11-22T07:25:00.499Z,17.90
2017-11-22T07:26:00.495Z,16.00
2017-11-22T07:27:00.492Z,17.50
2017-11-22T07:28:00.490Z,18.20
2017-11-22T07:29:00.487Z,18.70
2017-11-22T07:30:00.475Z,18.90
2017-11-22T07:31:00.482Z,16.00
2017-11-22T07:32:00.465Z,16.60
2017-11-22T07:33:00.461Z,16.10
2017-11-22T07:34:00.455Z,16.60
2017-11-22T07:35:00.455Z,16.30
2017-11-22T07:36:00.444Z,17.70
2017-11-22T07:37:00.440Z,15.70
2017-11-22T07:38:00.435Z,16.50
2017-11-22T07:39:00.429Z,18.90
2017-11-22T07:40:00.427Z,15.80
2017-11-22T07:41:00.420Z,19.10
2017-11-22T07:42:00.416Z,16.30
2017-11-22T07:43:00.412Z,17.30
2017-11-22T07:44:00.406Z,17.10
2017-11-22T07:45:00.400Z,18.70
2017-11-22T07:46:00.405Z,20.40
2017-11-22T07:47:00.392Z,15.10
2017-11-22T07:48:00.388Z,15.10
2017-11-22T07:49:00.380Z,17.30
2017-11-22T07:50:00.375Z,18.90
2017-11-22T07:51:00.370Z,18.10
2017-11-22T07:52:00.365Z,18.60
2017-11-22T07:53:00.360Z,18.60
2017-11-22T07:54:00.355Z,16.40
2017-11-22T07:55:00.351Z,16.90
2017-11-22T07:56:00.345Z,18.80
2017-11-22T07:57:00.342Z,16.80
2017-11-22T07:58:00.336Z,17.80
2017-11-22T07:59:00.332Z,17.90
2017-11-22T08:00:00.328Z,17.50
2017-11-22T08:01:00.323Z,15.40
2017-11-22T08:02:00.316Z,17.30
2017-11-22T08:03:00.314Z,21.40
2017-11-22T08:04:00.311Z,19.90
2017-11-22T08:05:00.303Z,17.80
2017-11-22T08:06:00.297Z,18.10
2017-11-22T08:07:00.295Z,18.10
2017-11-22T08:08:00.292Z,20.10
2017-11-22T08:09:00.284Z,18.90
2017-11-22T08:10:00.278Z,18.00
2017-11-22T08:11:00.273Z,17.70
2017-11-22T08:12:00.269Z,16.20
2017-11-22T08:13:00.263Z,17.20
2017-11-22T08:14:00.258Z,19.00
2017-11-22T08:15:00.266Z,19.30
2017-11-22T08:16:00.250Z,17.60
2017-11-22T08:17:00.247Z,18.90
2017-11-22T08:18:00.239Z,18.30
2017-11-22T08:19:00.244Z,18.70
2017-11-22T08:20:00.235Z,18.80
2017-11-22T08:21:00.227Z,20.20
2017-11-22T08:22:00.221Z,18.80
2017-11-22T08:23:00.218Z,18.70
2017-11-22T08:24:00.209Z,18.70
2017-11-22T08:25:00.213Z,18.30
2017-11-22T08:26:00.201Z,20.20
2017-11-22T08:27:00.203Z,18.60
2017-11-22T08:28:00.201Z,20.20
2017-11-22T08:29:00.187Z,18.80
2017-11-22T08:30:00.180Z,19.40
2017-11-22T08:31:00.175Z,20.40
2017-11-22T08:32:00.172Z,19.10
2017-11-22T08:33:00.170Z,22.20
2017-11-22T08:34:00.160Z,19.10
2017-11-22T08:35:00.158Z,20.30
2017-11-22T08:36:00.151Z,19.20
2017-11-22T08:37:00.151Z,22.50
2017-11-22T08:38:00.141Z,20.30
2017-11-22T08:39:00.138Z,20.00
2017-11-22T08:40:00.135Z,21.40
2017-11-22T08:41:00.128Z,19.50
2017-11-22T08:42:00.122Z,21.80
2017-11-22T08:43:00.118Z,19.50
2017-11-22T08:44:00.110Z,20.10
2017-11-22T08:45:00.115Z,22.20
2017-11-22T08:46:00.105Z,21.20
2017-11-22T08:47:00.098Z,21.40
2017-11-22T08:48:00.094Z,19.50
2017-11-22T08:49:00.093Z,21.30
2017-11-22T08:50:00.085Z,21.10
2017-11-22T08:51:00.079Z,19.10
2017-11-22T08:52:00.075Z,18.50
2017-11-22T08:53:00.071Z,18.40
2017-11-22T08:54:00.065Z,20.60
2017-11-22T08:55:00.069Z,18.80
2017-11-22T08:56:00.056Z,20.70
2017-11-22T08:57:00.051Z,19.60
2017-11-22T08:58:00.048Z,22.20
2017-11-22T08:59:00.041Z,20.10
2017-11-22T09:00:00.038Z,19.00
2017-11-22T09:01:00.033Z,19.00
2017-11-22T09:02:00.032Z,20.00
2017-11-22T09:03:00.022Z,17.90
2017-11-22T09:04:00.021Z,18.20
2017-11-22T09:05:00.016Z,20.40
2017-11-22T09:06:00.011Z,19.20
2017-11-22T09:07:00.007Z,20.40
2017-11-22T09:07:59.999Z,19.90
2017-11-22T09:08:59.997Z,15.90
2017-11-22T09:09:59.992Z,16.10
2017-11-22T09:10:59.991Z,19.20
2017-11-22T09:12:00.011Z,16.40
2017-11-22T09:12:59.977Z,19.10
2017-11-22T09:13:59.971Z,18.70
2017-11-22T09:14:59.969Z,17.40
2017-11-22T09:15:59.964Z,17.70
2017-11-22T09:16:59.961Z,19.40
2017-11-22T09:17:59.958Z,18.20
2017-11-22T09:18:59.950Z,16.80
2017-11-22T09:19:59.947Z,16.90
2017-11-22T09:20:59.942Z,15.90
2017-11-22T09:21:59.935Z,15.50
2017-11-22T09:22:59.933Z,16.90
2017-11-22T09:23:59.927Z,16.10
2017-11-22T09:24:59.924Z,17.20
2017-11-22T09:25:59.914Z,18.00
2017-11-22T09:26:59.906Z,15.90
2017-11-22T09:27:59.909Z,19.10
2017-11-22T09:28:59.904Z,19.00
2017-11-22T09:29:59.905Z,20.20
2017-11-22T09:30:59.894Z,19.80
2017-11-22T09:31:59.892Z,19.80
2017-11-22T09:32:59.886Z,17.90
2017-11-22T09:33:59.879Z,18.20
2017-11-22T09:34:59.876Z,19.00
2017-11-22T09:35:59.872Z,19.50
2017-11-22T09:36:59.871Z,18.50
2017-11-22T09:37:59.864Z,17.80
2017-11-22T09:38:59.861Z,17.60
2017-11-22T09:39:59.854Z,18.60
2017-11-22T09:40:59.850Z,19.40
2017-11-22T09:41:59.846Z,20.30
2017-11-22T09:42:59.837Z,18.60
2017-11-22T09:43:59.836Z,16.00
2017-11-22T09:44:59.831Z,15.90
2017-11-22T09:45:59.828Z,21.50
2017-11-22T09:46:59.824Z,16.70
2017-11-22T09:47:59.818Z,16.70
2017-11-22T09:48:59.815Z,18.70
2017-11-22T09:49:59.808Z,17.50
2017-11-22T09:50:59.808Z,16.80
2017-11-22T09:51:59.805Z,17.20
2017-11-22T09:52:59.795Z,18.90
2017-11-22T09:53:59.793Z,18.60
2017-11-22T09:54:59.788Z,18.20
2017-11-22T09:55:59.785Z,18.80
2017-11-22T09:56:59.800Z,18.30
2017-11-22T09:57:59.782Z,16.80
2017-11-22T09:58:59.771Z,16.10
2017-11-22T09:59:59.766Z,17.20
2017-11-22T10:00:59.762Z,18.50
2017-11-22T10:01:59.758Z,17.60
2017-11-22T10:02:59.754Z,15.70
2017-11-22T10:03:59.752Z,18.60
2017-11-22T10:04:59.746Z,17.00
2017-11-22T10:05:59.746Z,17.90
2017-11-22T10:06:59.736Z,18.40
2017-11-22T10:07:59.734Z,17.90
2017-11-22T10:08:59.730Z,18.10
2017-11-22T10:09:59.722Z,17.60
2017-11-22T10:10:59.719Z,17.70
2017-11-22T10:11:59.715Z,17.20
2017-11-22T10:12:59.710Z,18.50
2017-11-22T10:13:59.705Z,17.40
2017-11-22T10:14:59.703Z,19.90
2017-11-22T10:15:59.707Z,19.70
2017-11-22T10:16:59.695Z,19.70
2017-11-22T10:17:59.693Z,18.40
2017-11-22T10:18:59.685Z,19.70
2017-11-22T10:19:59.681Z,17.50
2017-11-22T10:20:59.679Z,19.30
2017-11-22T10:21:59.674Z,17.90
2017-11-22T10:22:59.667Z,17.10
2017-11-22T10:23:59.670Z,14.60
2017-11-22T10:24:59.659Z,17.50
2017-11-22T10:25:59.657Z,17.80
2017-11-22T10:26:59.653Z,13.40
2017-11-22T10:27:59.650Z,20.80
2017-11-22T10:28:59.655Z,18.20
2017-11-22T10:29:59.639Z,15.40
2017-11-22T10:30:59.644Z,18.30
2017-11-22T10:31:59.635Z,18.70
2017-11-22T10:32:59.629Z,15.60
2017-11-22T10:33:59.628Z,15.60
2017-11-22T10:34:59.620Z,15.90
2017-11-22T10:35:59.617Z,16.90
2017-11-22T10:36:59.612Z,15.30
2017-11-22T10:37:59.609Z,15.90
2017-11-22T10:38:59.604Z,16.10
2017-11-22T10:39:59.600Z,16.10
2017-11-22T10:40:59.597Z,17.70
2017-11-22T10:41:59.592Z,15.90
2017-11-22T10:42:59.590Z,17.10
2017-11-22T10:43:59.589Z,15.60
2017-11-22T10:44:59.581Z,16.80
2017-11-22T10:45:59.577Z,18.30
2017-11-22T10:46:59.571Z,15.70
2017-11-22T10:47:59.569Z,16.90
2017-11-22T10:48:59.567Z,16.30
2017-11-22T10:49:59.561Z,17.50
2017-11-22T10:50:59.559Z,17.90
2017-11-22T10:51:59.556Z,16.40
2017-11-22T10:52:59.550Z,14.70
2017-11-22T10:53:59.546Z,15.10
2017-11-22T10:54:59.545Z,16.40
2017-11-22T10:55:59.540Z,15.50
2017-11-22T10:56:59.541Z,12.60
2017-11-22T10:57:59.535Z,14.00
2017-11-22T10:58:59.529Z,14.00
2017-11-22T10:59:59.537Z,15.50
2017-11-22T11:00:59.523Z,15.10
2017-11-22T11:01:59.519Z,16.80
2017-11-22T11:02:59.531Z,14.50
2017-11-22T11:03:59.521Z,13.70
2017-11-22T11:04:59.534Z,13.80
2017-11-22T11:05:59.519Z,18.20
2017-11-22T11:06:59.492Z,15.70
2017-11-22T11:07:59.497Z,14.60
2017-11-22T11:08:59.526Z,14.30
2017-11-22T11:09:59.487Z,13.00
2017-11-22T11:10:59.480Z,13.90
2017-11-22T11:11:59.487Z,12.00
2017-11-22T11:12:59.479Z,12.50
2017-11-22T11:13:59.462Z,15.10
2017-11-22T11:14:59.471Z,12.80
2017-11-22T11:15:59.468Z,12.50
2017-11-22T11:16:59.464Z,13.60
2017-11-22T11:17:59.460Z,14.60
2017-11-22T11:18:59.468Z,13.70
2017-11-22T11:19:59.454Z,14.80
2017-11-22T11:20:59.449Z,13.90
2017-11-22T11:21:59.444Z,11.50
2017-11-22T11:22:59.441Z,12.50
2017-11-22T11:23:59.441Z,14.60
2017-11-22T11:24:59.435Z,13.40
2017-11-22T11:25:59.428Z,13.00
2017-11-22T11:26:59.425Z,12.90
2017-11-22T11:27:59.423Z,13.20
2017-11-22T11:28:59.423Z,14.20
2017-11-22T11:29:59.430Z,15.90
2017-11-22T11:30:59.419Z,12.90
2017-11-22T11:31:59.410Z,15.20
2017-11-22T11:32:59.405Z,12.80
2017-11-22T11:33:59.406Z,13.80
2017-11-22T11:34:59.416Z,12.50
2017-11-22T11:35:59.403Z,13.30
2017-11-22T11:36:59.407Z,16.20
2017-11-22T11:37:59.389Z,13.60
2017-11-22T11:38:59.381Z,13.40
2017-11-22T11:39:59.380Z,14.00
2017-11-22T11:40:59.369Z,13.80
2017-11-22T11:41:59.373Z,12.10
2017-11-22T11:42:59.384Z,13.70
2017-11-22T11:43:59.367Z,16.20
2017-11-22T11:44:59.361Z,14.30
2017-11-22T11:45:59.359Z,12.70
2017-11-22T11:46:59.357Z,13.40
2017-11-22T11:47:59.355Z,14.50
2017-11-22T11:48:59.350Z,14.50
2017-11-22T11:49:59.346Z,14.60
2017-11-22T11:50:59.345Z,13.30
2017-11-22T11:51:59.343Z,13.30
2017-11-22T11:52:59.336Z,15.30
2017-11-22T11:53:59.335Z,15.00
2017-11-22T11:54:59.328Z,13.80
2017-11-22T11:55:59.328Z,15.50
2017-11-22T11:56:59.325Z,13.00
2017-11-22T11:57:59.320Z,14.00
2017-11-22T11:58:59.332Z,13.30
2017-11-22T11:59:59.313Z,12.00
2017-11-22T12:00:59.312Z,13.20
2017-11-22T12:01:59.308Z,13.30
2017-11-22T12:02:59.330Z,12.40
2017-11-22T12:03:59.298Z,12.00
2017-11-22T12:04:59.296Z,12.10
2017-11-22T12:05:59.295Z,13.40
2017-11-22T12:06:59.293Z,14.10
2017-11-22T12:07:59.286Z,14.80
2017-11-22T12:08:59.281Z,13.90
2017-11-22T12:09:59.277Z,14.40
2017-11-22T12:10:59.274Z,12.20
2017-11-22T12:11:59.272Z,12.80
2017-11-22T12:12:59.269Z,13.00
2017-11-22T12:13:59.262Z,12.40
2017-11-22T12:14:59.258Z,11.50
2017-11-22T12:15:59.259Z,11.90
2017-11-22T12:16:59.253Z,14.50
2017-11-22T12:17:59.248Z,13.10
2017-11-22T12:18:59.246Z,11.80
2017-11-22T12:19:59.241Z,12.00
2017-11-22T12:20:59.238Z,12.50
2017-11-22T12:21:59.231Z,14.10
2017-11-22T12:22:59.231Z,14.00
2017-11-22T12:23:59.225Z,13.20
2017-11-22T12:24:59.228Z,12.00
2017-11-22T12:25:59.220Z,13.70
2017-11-22T12:26:59.216Z,16.10
2017-11-22T12:27:59.212Z,13.60
2017-11-22T12:28:59.209Z,14.60
2017-11-22T12:29:59.211Z,12.80
2017-11-22T12:30:59.201Z,11.90
2017-11-22T12:31:59.202Z,12.90
2017-11-22T12:32:59.193Z,13.50
2017-11-22T12:33:59.192Z,12.00
2017-11-22T12:34:59.181Z,14.50
2017-11-22T12:35:59.187Z,11.20
2017-11-22T12:36:59.177Z,10.80
2017-11-22T12:37:59.173Z,14.20
2017-11-22T12:38:59.172Z,11.80
2017-11-22T12:39:59.167Z,11.10
2017-11-22T12:40:59.163Z,11.30
2017-11-22T12:41:59.160Z,13.00
2017-11-22T12:42:59.164Z,11.90
2017-11-22T12:43:59.150Z,11.00
2017-11-22T12:44:59.147Z,13.50
2017-11-22T12:45:59.142Z,12.40
2017-11-22T12:46:59.139Z,11.20
2017-11-22T12:47:59.136Z,11.40
2017-11-22T12:48:59.134Z,13.90
2017-11-22T12:49:59.129Z,12.20
2017-11-22T12:50:59.127Z,13.40
2017-11-22T12:51:59.123Z,12.30
2017-11-22T12:52:59.119Z,12.10